createdAt,value
2023-04-05T00:00:23.087Z,98890.13
2023-04-05T00:02:49.761Z,98888.22
2023-04-05T00:08:04.830Z,98888.41
2023-04-05T00:10:31.833Z,98888.50
2023-04-05T00:12:58.906Z,98884.50
2023-04-05T00:15:27.380Z,98880.84
2023-04-05T00:17:56.822Z,98884.50
2023-04-05T00:20:23.515Z,98872.94
2023-04-05T00:22:51.009Z,98870.34
2023-04-05T00:27:49.955Z,98864.34
2023-04-05T00:35:23.498Z,98857.19
2023-04-05T00:37:50.150Z,98854.59
2023-04-05T00:40:16.913Z,98852.41
2023-04-05T00:45:20.912Z,98850.59
2023-04-05T00:47:47.769Z,98850.16
2023-04-05T00:52:54.601Z,98844.78
2023-04-05T00:55:22.534Z,98845.78
2023-04-05T01:00:23.173Z,98846.78
2023-04-05T01:02:53.225Z,98834.84
2023-04-05T01:05:42.375Z,98837.63
2023-04-05T01:08:25.588Z,98839.03
2023-04-05T01:10:57.352Z,98830.72
2023-04-05T01:18:38.237Z,98829.53
2023-04-05T01:21:23.430Z,98830.34
2023-04-05T01:24:10.157Z,98822.03
2023-04-05T01:27:22.252Z,98815.47
2023-04-05T01:30:12.914Z,98805.41
2023-04-05T01:38:25.520Z,98805.47
2023-04-05T01:40:53.678Z,98804.56
2023-04-05T01:43:20.467Z,98804.28
2023-04-05T01:45:47.399Z,98803.06
2023-04-05T01:50:51.273Z,98800.34
2023-04-05T01:53:17.988Z,98800.72
2023-04-05T01:55:44.743Z,98800.03
2023-04-05T01:58:11.453Z,98797.53
2023-04-05T02:00:38.167Z,98795.06
2023-04-05T02:03:04.888Z,98792.84
2023-04-05T02:05:31.635Z,98789.44
2023-04-05T02:07:58.278Z,98792.56
2023-04-05T02:10:25.015Z,98782.66
2023-04-05T02:12:51.737Z,98791.22
2023-04-05T02:15:18.429Z,98786.53
2023-04-05T02:20:20.141Z,98779.34
2023-04-05T02:22:47.380Z,98787.19
2023-04-05T02:25:14.078Z,98785.41
2023-04-05T02:27:41.456Z,98775.41
2023-04-05T02:30:08.770Z,98774.66
2023-04-05T02:32:35.576Z,98778.47
2023-04-05T02:35:02.900Z,98779.84
2023-04-05T02:37:29.697Z,98776.03
2023-04-05T02:42:34.185Z,98773.66
2023-04-05T02:45:01.378Z,98775.38
2023-04-05T02:47:28.233Z,98774.56
2023-04-05T02:49:54.937Z,98774.78
2023-04-05T02:52:21.594Z,98776.47
2023-04-05T02:54:48.271Z,98781.34
2023-04-05T02:57:14.977Z,98770.25
2023-04-05T02:59:42.814Z,98772.50
2023-04-05T03:02:10.956Z,98766.66
2023-04-05T03:04:38.905Z,98765.59
2023-04-05T03:07:05.534Z,98765.50
2023-04-05T03:09:38.815Z,98766.81
2023-04-05T03:12:05.669Z,98769.16
2023-04-05T03:14:34.602Z,98766.31
2023-04-05T03:17:01.521Z,98773.00
2023-04-05T03:19:28.228Z,98761.94
2023-04-05T03:24:28.575Z,98759.84
2023-04-05T03:26:55.384Z,98759.94
2023-04-05T03:29:22.014Z,98761.53
2023-04-05T03:31:51.200Z,98760.66
2023-04-05T03:34:17.876Z,98757.53
2023-04-05T03:36:44.535Z,98754.56
2023-04-05T03:39:14.074Z,98762.38
2023-04-05T03:41:41.414Z,98760.22
2023-04-05T03:46:40.598Z,98759.63
2023-04-05T03:49:07.842Z,98758.63
2023-04-05T03:51:34.646Z,98751.88
2023-04-05T03:54:01.345Z,98755.06
2023-04-05T03:56:28.034Z,98761.13
2023-04-05T03:58:54.851Z,98755.97
2023-04-05T04:01:22.314Z,98755.44
2023-04-05T04:03:48.955Z,98760.25
2023-04-05T04:06:17.867Z,98760.53
2023-04-05T04:08:45.980Z,98758.59
2023-04-05T04:11:12.707Z,98758.78
2023-04-05T04:13:39.377Z,98761.97
2023-04-05T04:18:38.151Z,98763.78
2023-04-05T04:21:08.133Z,98765.31
2023-04-05T04:23:38.788Z,98758.22
2023-04-05T04:26:06.246Z,98757.63
2023-04-05T04:28:35.112Z,98762.53
2023-04-05T04:31:05.242Z,98766.09
2023-04-05T04:36:13.850Z,98762.84
2023-04-05T04:41:22.947Z,98768.00
2023-04-05T04:43:49.663Z,98770.53
2023-04-05T04:46:16.456Z,98767.84
2023-04-05T04:48:43.221Z,98763.06
2023-04-05T04:53:41.127Z,98763.56
2023-04-05T04:56:09.005Z,98769.28
2023-04-05T04:58:36.091Z,98769.50
2023-04-05T05:01:09.173Z,98766.59
2023-04-05T05:03:37.836Z,98755.88
2023-04-05T05:06:05.070Z,98763.50
2023-04-05T05:13:42.218Z,98771.47
2023-04-05T05:18:41.963Z,98768.38
2023-04-05T05:23:42.374Z,98775.84
2023-04-05T05:28:40.860Z,98776.16
2023-04-05T05:31:07.530Z,98774.03
2023-04-05T05:33:34.485Z,98776.25
2023-04-05T05:36:01.220Z,98778.97
2023-04-05T05:38:27.929Z,98778.41
2023-04-05T05:40:58.346Z,98778.66
2023-04-05T05:43:25.129Z,98779.25
2023-04-05T05:45:51.944Z,98769.28
2023-04-05T05:48:18.938Z,98769.59
2023-04-05T05:50:48.961Z,98769.88
2023-04-05T05:53:16.577Z,98776.34
2023-04-05T05:55:43.434Z,98771.56
2023-04-05T05:58:10.133Z,98778.16
2023-04-05T06:00:36.853Z,98778.41
2023-04-05T06:03:04.831Z,98771.66
2023-04-05T06:05:32.091Z,98776.19
2023-04-05T06:07:58.754Z,98774.53
2023-04-05T06:10:25.847Z,98778.81
2023-04-05T06:12:52.543Z,98778.59
2023-04-05T06:15:19.501Z,98781.16
2023-04-05T06:17:46.227Z,98771.56
2023-04-05T06:20:13.096Z,98784.16
2023-04-05T06:22:41.468Z,98783.91
2023-04-05T06:25:09.119Z,98783.75
2023-04-05T06:27:36.198Z,98788.69
2023-04-05T06:30:03.940Z,98784.34
2023-04-05T06:32:30.595Z,98793.16
2023-04-05T06:34:57.244Z,98787.47
2023-04-05T06:37:24.047Z,98782.53
2023-04-05T06:39:50.942Z,98786.63
2023-04-05T06:42:17.661Z,98787.88
2023-04-05T06:44:45.009Z,98787.34
2023-04-05T06:49:45.143Z,98785.66
2023-04-05T06:52:11.775Z,98772.19
2023-04-05T06:54:39.365Z,98790.50
2023-04-05T06:57:06.103Z,98782.66
2023-04-05T06:59:33.141Z,98789.47
2023-04-05T07:01:59.982Z,98792.84
2023-04-05T07:04:27.705Z,98784.88
2023-04-05T07:06:54.415Z,98797.72
2023-04-05T07:09:22.472Z,98791.81
2023-04-05T07:11:49.108Z,98796.06
2023-04-05T07:14:15.754Z,98795.47
2023-04-05T07:16:42.399Z,98800.06
2023-04-05T07:19:09.100Z,98797.09
2023-04-05T07:24:08.921Z,98796.78
2023-04-05T07:26:37.642Z,98789.16
2023-04-05T07:29:06.568Z,98791.53
2023-04-05T07:31:33.302Z,98789.28
2023-04-05T07:34:01.397Z,98788.94
2023-04-05T07:36:30.919Z,98789.34
2023-04-05T07:38:58.360Z,98779.53
2023-04-05T07:41:26.434Z,98788.88
2023-04-05T07:43:53.173Z,98783.03
2023-04-05T07:46:20.681Z,98778.53
2023-04-05T07:48:48.725Z,98783.44
2023-04-05T07:53:52.901Z,98791.50
2023-04-05T07:56:19.588Z,98783.91
2023-04-05T07:58:47.745Z,98775.56
2023-04-05T08:01:14.427Z,98784.03
2023-04-05T08:03:41.202Z,98790.41
2023-04-05T08:06:17.796Z,98786.78
2023-04-05T08:08:45.689Z,98794.56
2023-04-05T08:11:12.847Z,98790.22
2023-04-05T08:13:43.090Z,98786.91
2023-04-05T08:16:10.675Z,98784.34
2023-04-05T08:18:38.096Z,98777.88
2023-04-05T08:21:04.813Z,98781.28
2023-04-05T08:23:32.314Z,98779.75
2023-04-05T08:25:58.932Z,98775.56
2023-04-05T08:28:25.773Z,98784.09
2023-04-05T08:30:56.707Z,98771.28
2023-04-05T08:33:24.148Z,98766.91
2023-04-05T08:35:51.474Z,98777.28
2023-04-05T08:38:18.482Z,98772.34
2023-04-05T08:40:46.956Z,98775.56
2023-04-05T08:43:38.671Z,98782.94
2023-04-05T08:46:09.737Z,98778.69
2023-04-05T08:48:38.217Z,98770.00
2023-04-05T08:51:06.204Z,98774.22
2023-04-05T08:53:33.580Z,98776.22
2023-04-05T08:56:01.690Z,98778.09
2023-04-05T08:58:29.079Z,98775.53
2023-04-05T09:00:56.699Z,98772.16
2023-04-05T09:03:27.156Z,98781.03
2023-04-05T09:05:54.129Z,98773.72
2023-04-05T09:08:23.887Z,98772.91
2023-04-05T09:10:54.443Z,98773.16
2023-04-05T09:13:21.378Z,98771.25
2023-04-05T09:15:49.027Z,98775.75
2023-04-05T09:18:26.323Z,98780.94
2023-04-05T09:21:06.594Z,98777.41
2023-04-05T09:23:37.235Z,98769.19
2023-04-05T09:26:18.557Z,98762.50
2023-04-05T09:28:45.395Z,98768.69
2023-04-05T09:31:30.727Z,98770.00
2023-04-05T09:34:04.790Z,98767.97
2023-04-05T09:36:34.057Z,98770.47
2023-04-05T09:39:08.278Z,98764.28
2023-04-05T09:41:36.061Z,98761.75
2023-04-05T09:44:03.001Z,98759.44
2023-04-05T09:46:38.437Z,98771.91
2023-04-05T09:49:07.349Z,98762.50
2023-04-05T09:54:11.504Z,98756.34
2023-04-05T09:56:53.579Z,98755.19
2023-04-05T09:59:20.454Z,98756.13
2023-04-05T10:01:51.909Z,98747.19
2023-04-05T10:04:21.890Z,98754.56
2023-04-05T10:06:48.820Z,98747.69
2023-04-05T10:09:15.829Z,98740.47
2023-04-05T10:11:44.107Z,98740.13
2023-04-05T10:14:10.850Z,98734.84
2023-04-05T10:16:52.493Z,98736.31
2023-04-05T10:20:05.874Z,98732.84
2023-04-05T10:22:41.263Z,98733.47
2023-04-05T10:25:23.672Z,98731.03
2023-04-05T10:28:11.484Z,98735.19
2023-04-05T10:30:44.885Z,98726.00
2023-04-05T10:33:22.735Z,98729.69
2023-04-05T10:36:08.651Z,98727.22
2023-04-05T10:38:51.799Z,98729.94
2023-04-05T10:41:18.737Z,98730.00
2023-04-05T10:46:21.765Z,98729.38
2023-04-05T10:49:32.581Z,98724.44
2023-04-05T10:51:59.625Z,98717.97
2023-04-05T10:54:27.443Z,98711.56
2023-04-05T10:56:55.157Z,98714.41
2023-04-05T10:59:22.844Z,98719.69
2023-04-05T11:01:50.358Z,98720.38
2023-04-05T11:04:17.964Z,98705.75
2023-04-05T11:06:48.343Z,98706.94
2023-04-05T11:09:21.905Z,98705.63
2023-04-05T11:11:50.762Z,98703.09
2023-04-05T11:14:37.354Z,98703.91
2023-04-05T11:19:50.358Z,98696.84
2023-04-05T11:25:04.781Z,98683.41
2023-04-05T11:27:41.170Z,98681.69
2023-04-05T11:30:08.477Z,98682.38
2023-04-05T11:32:45.967Z,98677.75
2023-04-05T11:35:23.583Z,98687.03
2023-04-05T11:38:06.390Z,98678.34
2023-04-05T11:40:37.775Z,98667.72
2023-04-05T11:43:10.417Z,98672.81
2023-04-05T11:45:38.906Z,98657.69
2023-04-05T11:48:07.692Z,98675.03
2023-04-05T11:50:35.923Z,98664.75
2023-04-05T11:53:12.271Z,98666.72
2023-04-05T11:55:41.169Z,98661.63
2023-04-05T11:58:18.319Z,98660.91
2023-04-05T12:00:46.757Z,98659.72
2023-04-05T12:03:17.878Z,98662.50
2023-04-05T12:05:48.109Z,98655.75
2023-04-05T12:08:14.907Z,98660.06
2023-04-05T12:13:29.486Z,98655.44
2023-04-05T12:16:04.578Z,98644.44
2023-04-05T12:18:33.049Z,98642.91
2023-04-05T12:21:01.478Z,98647.19
2023-04-05T12:26:08.469Z,98639.22
2023-04-05T12:28:54.193Z,98634.28
2023-04-05T12:31:43.698Z,98637.78
2023-04-05T12:36:46.362Z,98630.06
2023-04-05T12:39:13.185Z,98627.50
2023-04-05T12:41:40.150Z,98634.72
2023-04-05T12:44:14.973Z,98632.91
2023-04-05T12:46:43.249Z,98625.44
2023-04-05T12:49:16.813Z,98614.75
2023-04-05T12:51:45.140Z,98619.19
2023-04-05T12:54:13.642Z,98613.06
2023-04-05T12:56:40.679Z,98611.22
2023-04-05T12:59:08.146Z,98603.84
2023-04-05T13:01:35.268Z,98595.28
2023-04-05T13:04:14.553Z,98596.34
2023-04-05T13:06:43.468Z,98601.59
2023-04-05T13:09:10.218Z,98596.72
2023-04-05T13:11:36.987Z,98598.41
2023-04-05T13:14:03.675Z,98591.84
2023-04-05T13:16:30.379Z,98590.59
2023-04-05T13:18:57.076Z,98585.50
2023-04-05T13:21:23.748Z,98579.34
2023-04-05T13:23:50.503Z,98585.16
2023-04-05T13:26:17.239Z,98576.53
2023-04-05T13:28:43.933Z,98576.13
2023-04-05T13:31:11.681Z,98577.00
2023-04-05T13:33:39.679Z,98576.91
2023-04-05T13:36:06.684Z,98575.56
2023-04-05T13:38:33.470Z,98569.13
2023-04-05T13:41:00.184Z,98575.94
2023-04-05T13:43:28.194Z,98567.94
2023-04-05T13:45:54.892Z,98561.31
2023-04-05T13:48:21.576Z,98563.56
2023-04-05T13:50:48.447Z,98563.47
2023-04-05T13:53:15.187Z,98557.56
2023-04-05T13:55:41.983Z,98550.53
2023-04-05T13:58:08.802Z,98554.63
2023-04-05T14:00:35.691Z,98556.31
2023-04-05T14:03:02.528Z,98554.88
2023-04-05T14:05:29.258Z,98552.75
2023-04-05T14:07:56.112Z,98552.28
2023-04-05T14:10:24.110Z,98546.91
2023-04-05T14:15:23.892Z,98546.69
2023-04-05T14:17:50.623Z,98544.00
2023-04-05T14:20:17.442Z,98545.63
2023-04-05T14:22:44.152Z,98538.59
2023-04-05T14:25:11.014Z,98539.75
2023-04-05T14:27:42.417Z,98542.56
2023-04-05T14:32:42.745Z,98535.03
2023-04-05T14:35:09.671Z,98536.22
2023-04-05T14:37:36.759Z,98529.41
2023-04-05T14:40:03.588Z,98531.78
2023-04-05T14:42:45.249Z,98523.06
2023-04-05T14:45:15.690Z,98526.50
2023-04-05T14:47:42.409Z,98519.91
2023-04-05T14:50:09.650Z,98521.53
2023-04-05T14:52:36.532Z,98519.13
2023-04-05T14:55:03.363Z,98518.78
2023-04-05T15:00:09.473Z,98519.22
2023-04-05T15:05:15.706Z,98518.06
2023-04-05T15:07:42.393Z,98513.00
2023-04-05T15:10:09.430Z,98510.38
2023-04-05T15:12:36.300Z,98511.91
2023-04-05T15:15:03.134Z,98507.50
2023-04-05T15:17:29.818Z,98512.75
2023-04-05T15:19:56.506Z,98510.31
2023-04-05T15:22:23.774Z,98496.66
2023-04-05T15:24:50.461Z,98502.47
2023-04-05T15:27:17.143Z,98501.38
2023-04-05T15:29:43.856Z,98512.47
2023-04-05T15:32:10.526Z,98507.31
2023-04-05T15:34:37.157Z,98508.81
2023-04-05T15:37:03.849Z,98512.78
2023-04-05T15:39:30.601Z,98504.16
2023-04-05T15:41:58.075Z,98500.69
2023-04-05T15:44:24.804Z,98510.91
2023-04-05T15:46:51.554Z,98501.47
2023-04-05T15:49:18.346Z,98509.19
2023-04-05T15:51:45.164Z,98501.16
2023-04-05T15:54:16.892Z,98497.66
2023-04-05T15:56:43.539Z,98505.44
2023-04-05T15:59:10.346Z,98499.38
2023-04-05T16:01:38.088Z,98507.41
2023-04-05T16:04:05.156Z,98500.53
2023-04-05T16:06:32.185Z,98502.66
2023-04-05T16:08:59.796Z,98508.09
2023-04-05T16:11:26.960Z,98505.97
2023-04-05T16:13:54.179Z,98504.06
2023-04-05T16:18:52.718Z,98495.84
2023-04-05T16:21:19.530Z,98506.06
2023-04-05T16:23:46.776Z,98507.38
2023-04-05T16:26:14.087Z,98501.59
2023-04-05T16:28:41.484Z,98501.84
2023-04-05T16:31:08.176Z,98507.06
2023-04-05T16:36:13.293Z,98509.22
2023-04-05T16:38:41.766Z,98504.91
2023-04-05T16:41:08.688Z,98495.53
2023-04-05T16:43:35.419Z,98508.78
2023-04-05T16:46:02.148Z,98510.94
2023-04-05T16:48:30.819Z,98509.13
2023-04-05T16:50:57.624Z,98508.25
2023-04-05T16:53:24.939Z,98506.41
2023-04-05T16:58:30.054Z,98510.25
2023-04-05T17:01:00.544Z,98509.81
2023-04-05T17:03:27.606Z,98506.84
2023-04-05T17:05:54.441Z,98507.72
2023-04-05T17:10:54.414Z,98520.13
2023-04-05T17:13:21.398Z,98517.06
2023-04-05T17:18:20.875Z,98511.94
2023-04-05T17:20:47.525Z,98512.53
2023-04-05T17:25:45.622Z,98513.28
2023-04-05T17:28:13.311Z,98513.09
2023-04-05T17:30:40.030Z,98519.91
2023-04-05T17:33:06.770Z,98515.69
2023-04-05T17:35:33.488Z,98518.25
2023-04-05T17:38:00.375Z,98520.13
2023-04-05T17:40:27.372Z,98520.91
2023-04-05T17:42:54.028Z,98529.09
2023-04-05T17:50:37.452Z,98528.53
2023-04-05T17:53:04.210Z,98531.47
2023-04-05T17:55:33.508Z,98532.59
2023-04-05T17:58:00.501Z,98523.09
2023-04-05T18:00:27.264Z,98526.00
2023-04-05T18:02:54.244Z,98528.78
2023-04-05T18:05:21.096Z,98535.66
2023-04-05T18:07:47.900Z,98538.19
2023-04-05T18:12:52.589Z,98525.31
2023-04-05T18:15:19.220Z,98532.38
2023-04-05T18:17:45.951Z,98537.00
2023-04-05T18:20:13.543Z,98535.44
2023-04-05T18:22:40.298Z,98540.00
2023-04-05T18:25:08.914Z,98543.91
2023-04-05T18:30:07.640Z,98544.53
2023-04-05T18:32:34.275Z,98550.47
2023-04-05T18:37:32.528Z,98551.75
2023-04-05T18:39:59.352Z,98559.25
2023-04-05T18:42:26.080Z,98555.28
2023-04-05T18:44:52.760Z,98569.31
2023-04-05T18:47:19.465Z,98555.19
2023-04-05T18:49:46.222Z,98570.47
2023-04-05T18:52:12.878Z,98575.78
2023-04-05T18:54:39.956Z,98571.81
2023-04-05T18:57:07.559Z,98570.00
2023-04-05T18:59:34.288Z,98573.63
2023-04-05T19:04:35.425Z,98572.50
2023-04-05T19:09:33.824Z,98582.81
2023-04-05T19:12:00.478Z,98589.13
2023-04-05T19:14:27.188Z,98587.69
2023-04-05T19:16:53.879Z,98582.09
2023-04-05T19:19:20.589Z,98589.22
2023-04-05T19:21:47.273Z,98579.97
2023-04-05T19:24:15.239Z,98589.91
2023-04-05T19:26:45.332Z,98587.84
2023-04-05T19:29:12.057Z,98586.03
2023-04-05T19:31:40.055Z,98588.91
2023-04-05T19:34:07.527Z,98583.06
2023-04-05T19:36:38.322Z,98578.97
2023-04-05T19:39:06.750Z,98585.97
2023-04-05T19:41:33.663Z,98589.09
2023-04-05T19:44:00.919Z,98588.63
2023-04-05T19:46:31.223Z,98584.66
2023-04-05T19:49:07.643Z,98580.47
2023-04-05T19:51:36.024Z,98578.41
2023-04-05T19:54:09.292Z,98580.84
2023-04-05T19:56:37.487Z,98585.00
2023-04-05T19:59:25.336Z,98588.31
2023-04-05T20:01:52.088Z,98583.56
2023-04-05T20:04:20.862Z,98585.75
2023-04-05T20:06:53.368Z,98575.56
2023-04-05T20:09:22.087Z,98580.75
2023-04-05T20:11:59.864Z,98586.75
2023-04-05T20:14:48.182Z,98579.28
2023-04-05T20:17:17.489Z,98587.16
2023-04-05T20:20:01.215Z,98586.91
2023-04-05T20:22:29.226Z,98585.53
2023-04-05T20:24:55.910Z,98589.06
2023-04-05T20:27:22.625Z,98578.19
2023-04-05T20:29:49.350Z,98581.56
2023-04-05T20:32:17.432Z,98572.94
2023-04-05T20:34:46.486Z,98577.66
2023-04-05T20:37:13.714Z,98579.69
2023-04-05T20:39:40.533Z,98581.47
2023-04-05T20:42:09.536Z,98577.63
2023-04-05T20:44:36.555Z,98584.59
2023-04-05T20:47:03.346Z,98578.06
2023-04-05T20:49:30.043Z,98581.31
2023-04-05T20:51:57.792Z,98582.00
2023-04-05T20:54:24.818Z,98582.66
2023-04-05T20:56:51.569Z,98590.13
2023-04-05T20:59:18.318Z,98580.69
2023-04-05T21:04:19.489Z,98577.03
2023-04-05T21:06:46.276Z,98576.19
2023-04-05T21:09:12.918Z,98582.91
2023-04-05T21:11:39.512Z,98591.94
2023-04-05T21:14:06.180Z,98594.97
2023-04-05T21:16:32.856Z,98593.00
2023-04-05T21:18:59.602Z,98593.34
2023-04-05T21:21:26.487Z,98595.28
2023-04-05T21:23:53.154Z,98585.16
2023-04-05T21:26:19.854Z,98584.63
2023-04-05T21:28:46.606Z,98591.72
2023-04-05T21:31:13.255Z,98582.03
2023-04-05T21:33:39.997Z,98584.88
2023-04-05T21:36:06.878Z,98588.22
2023-04-05T21:38:33.562Z,98588.56
2023-04-05T21:41:00.167Z,98584.44
2023-04-05T21:43:26.817Z,98582.03
2023-04-05T21:45:53.484Z,98589.66
2023-04-05T21:48:20.375Z,98585.50
2023-04-05T21:50:47.148Z,98593.50
2023-04-05T21:53:14.808Z,98588.69
2023-04-05T21:55:41.502Z,98584.56
2023-04-05T21:58:08.204Z,98585.38
2023-04-05T22:00:34.932Z,98586.66
2023-04-05T22:05:40.034Z,98588.84
2023-04-05T22:08:07.520Z,98595.09
2023-04-05T22:10:35.722Z,98588.22
2023-04-05T22:13:02.510Z,98594.56
2023-04-05T22:15:29.227Z,98585.31
2023-04-05T22:17:56.019Z,98586.59
2023-04-05T22:20:22.709Z,98583.25
2023-04-05T22:22:49.416Z,98587.25
2023-04-05T22:25:16.168Z,98589.78
2023-04-05T22:27:42.837Z,98589.28
2023-04-05T22:30:09.730Z,98595.69
2023-04-05T22:32:36.929Z,98598.38
2023-04-05T22:35:04.715Z,98597.75
2023-04-05T22:37:36.037Z,98598.00
2023-04-05T22:40:05.277Z,98592.63
2023-04-05T22:42:32.217Z,98596.19
2023-04-05T22:44:58.996Z,98594.47
2023-04-05T22:47:25.745Z,98594.34
2023-04-05T22:52:23.889Z,98586.53
2023-04-05T22:54:50.816Z,98590.34
2023-04-05T22:57:17.484Z,98583.69
2023-04-05T22:59:44.166Z,98586.13
2023-04-05T23:02:12.641Z,98578.34
2023-04-05T23:04:39.665Z,98575.19
2023-04-05T23:07:06.477Z,98578.69
2023-04-05T23:09:33.133Z,98581.69
2023-04-05T23:11:59.786Z,98581.81
2023-04-05T23:14:27.422Z,98581.97
2023-04-05T23:16:54.156Z,98586.59
2023-04-05T23:19:20.842Z,98578.84
2023-04-05T23:21:47.558Z,98583.41
2023-04-05T23:24:14.206Z,98568.63
2023-04-05T23:26:41.116Z,98578.47
2023-04-05T23:31:39.045Z,98576.38
2023-04-05T23:34:05.698Z,98578.63
2023-04-05T23:36:32.726Z,98575.44
2023-04-05T23:39:00.293Z,98578.28
2023-04-05T23:44:00.079Z,98578.41
2023-04-05T23:46:26.790Z,98581.03
2023-04-05T23:48:53.443Z,98579.31
2023-04-05T23:51:20.079Z,98578.81
2023-04-05T23:53:46.799Z,98572.53
2023-04-05T23:56:13.423Z,98584.03
2023-04-05T23:58:42.402Z,98585.09
